createdAt,value
2018-08-06T00:00:42.822Z,2.40
2018-08-06T00:03:17.821Z,2.40
2018-08-06T00:05:53.316Z,2.27
2018-08-06T00:08:28.559Z,2.73
2018-08-06T00:11:03.693Z,2.83
2018-08-06T00:13:38.694Z,2.37
2018-08-06T00:16:13.205Z,2.10
2018-08-06T00:18:48.325Z,2.70
2018-08-06T00:21:23.278Z,3.00
2018-08-06T00:23:58.449Z,2.70
2018-08-06T00:26:33.163Z,2.53
2018-08-06T00:29:08.518Z,2.57
2018-08-06T00:31:43.293Z,2.60
2018-08-06T00:34:18.985Z,2.83
2018-08-06T00:36:54.140Z,2.40
2018-08-06T00:39:29.187Z,2.90
2018-08-06T00:42:03.997Z,2.37
2018-08-06T00:44:38.826Z,2.90
2018-08-06T00:47:13.970Z,2.83
2018-08-06T00:49:49.199Z,3.13
2018-08-06T00:52:23.922Z,2.63
2018-08-06T00:54:59.174Z,3.20
2018-08-06T00:57:33.886Z,2.90
2018-08-06T01:00:11.543Z,3.07
2018-08-06T01:02:46.857Z,3.10
2018-08-06T01:05:22.279Z,3.37
2018-08-06T01:07:58.181Z,3.03
2018-08-06T01:10:33.286Z,3.63
2018-08-06T01:13:08.745Z,3.43
2018-08-06T01:15:43.743Z,3.70
2018-08-06T01:18:18.677Z,3.23
2018-08-06T01:20:53.761Z,3.30
2018-08-06T01:23:29.268Z,4.00
2018-08-06T01:26:04.513Z,3.90
2018-08-06T01:28:39.740Z,3.80
2018-08-06T01:31:18.981Z,3.53
2018-08-06T01:33:53.811Z,4.03
2018-08-06T01:36:28.733Z,3.60
2018-08-06T01:39:05.732Z,3.73
2018-08-06T01:41:40.864Z,3.77
2018-08-06T01:44:16.190Z,3.57
2018-08-06T01:46:51.315Z,3.90
2018-08-06T01:49:26.135Z,3.60
2018-08-06T01:52:01.239Z,3.90
2018-08-06T01:54:36.227Z,4.00
2018-08-06T01:57:11.062Z,3.90
2018-08-06T01:59:45.911Z,3.80
2018-08-06T02:02:20.714Z,3.70
2018-08-06T02:04:56.069Z,4.10
2018-08-06T02:07:31.156Z,3.93
2018-08-06T02:10:08.590Z,4.10
2018-08-06T02:12:44.209Z,3.80
2018-08-06T02:15:19.683Z,3.67
2018-08-06T02:17:55.041Z,4.10
2018-08-06T02:20:30.170Z,4.10
2018-08-06T02:23:05.607Z,3.80
2018-08-06T02:25:40.840Z,4.20
2018-08-06T02:28:16.169Z,3.90
2018-08-06T02:30:51.082Z,3.83
2018-08-06T02:33:26.564Z,3.60
2018-08-06T02:36:01.352Z,3.97
2018-08-06T02:38:36.997Z,4.13
2018-08-06T02:41:12.041Z,3.73
2018-08-06T02:43:47.741Z,3.90
2018-08-06T02:46:22.841Z,3.60
2018-08-06T02:48:57.602Z,3.90
2018-08-06T02:51:32.552Z,4.23
2018-08-06T02:54:08.649Z,3.70
2018-08-06T02:56:43.720Z,3.80
2018-08-06T02:59:18.512Z,4.00
2018-08-06T03:01:53.634Z,3.90
2018-08-06T03:04:28.774Z,3.87
2018-08-06T03:07:04.472Z,3.57
2018-08-06T03:09:39.847Z,4.33
2018-08-06T03:12:16.127Z,4.10
2018-08-06T03:14:50.865Z,4.30
2018-08-06T03:17:26.342Z,4.10
2018-08-06T03:20:00.823Z,4.00
2018-08-06T03:22:41.463Z,3.80
2018-08-06T03:25:17.323Z,4.13
2018-08-06T03:27:52.024Z,4.47
2018-08-06T03:30:27.554Z,4.60
2018-08-06T03:33:02.619Z,4.03
2018-08-06T03:35:38.001Z,4.23
2018-08-06T03:38:13.367Z,4.70
2018-08-06T03:40:48.085Z,4.03
2018-08-06T03:43:23.116Z,4.40
2018-08-06T03:45:58.158Z,3.90
2018-08-06T03:48:33.906Z,3.90
2018-08-06T03:51:08.636Z,4.20
2018-08-06T03:53:43.833Z,4.57
2018-08-06T03:56:20.670Z,4.27
2018-08-06T03:58:55.771Z,4.27
2018-08-06T04:01:30.809Z,3.87
2018-08-06T04:04:05.919Z,3.60
2018-08-06T04:06:40.992Z,4.07
2018-08-06T04:09:15.946Z,3.60
2018-08-06T04:11:51.153Z,4.33
2018-08-06T04:14:27.003Z,4.03
2018-08-06T04:17:02.893Z,4.37
2018-08-06T04:19:38.063Z,4.10
2018-08-06T04:22:13.302Z,4.17
2018-08-06T04:24:48.339Z,4.03
2018-08-06T04:27:24.906Z,4.20
2018-08-06T04:30:00.082Z,4.47
2018-08-06T04:32:35.235Z,4.00
2018-08-06T04:35:10.229Z,4.30
2018-08-06T04:37:45.823Z,4.20
2018-08-06T04:40:21.380Z,4.53
2018-08-06T04:42:56.406Z,4.63
2018-08-06T04:45:31.861Z,4.43
2018-08-06T04:48:06.921Z,4.47
2018-08-06T04:50:42.241Z,4.43
2018-08-06T04:53:16.841Z,4.30
2018-08-06T04:55:51.987Z,4.67
2018-08-06T04:58:27.103Z,5.00
2018-08-06T05:01:02.339Z,5.10
2018-08-06T05:03:37.288Z,4.87
2018-08-06T05:06:12.710Z,4.20
2018-08-06T05:08:48.063Z,4.97
2018-08-06T05:11:23.327Z,5.03
2018-08-06T05:13:58.181Z,4.30
2018-08-06T05:16:34.225Z,5.00
2018-08-06T05:19:09.338Z,4.70
2018-08-06T05:21:44.452Z,4.50
2018-08-06T05:24:19.653Z,4.43
2018-08-06T05:26:54.895Z,3.77
2018-08-06T05:29:29.713Z,3.90
2018-08-06T05:32:04.994Z,3.93
2018-08-06T05:34:39.916Z,3.57
2018-08-06T05:37:15.763Z,3.97
2018-08-06T05:39:51.316Z,4.10
2018-08-06T05:42:26.145Z,3.90
2018-08-06T05:45:01.116Z,3.77
2018-08-06T05:47:37.187Z,4.07
2018-08-06T05:50:13.455Z,3.53
2018-08-06T05:52:49.232Z,4.00
2018-08-06T05:55:24.430Z,4.10
2018-08-06T05:57:59.355Z,3.50
2018-08-06T06:00:34.340Z,3.90
2018-08-06T06:03:09.678Z,4.13
2018-08-06T06:05:44.667Z,4.07
2018-08-06T06:08:19.533Z,3.50
2018-08-06T06:10:54.919Z,3.90
2018-08-06T06:13:29.872Z,3.53
2018-08-06T06:16:05.137Z,3.93
2018-08-06T06:18:40.953Z,4.10
2018-08-06T06:21:16.345Z,3.93
2018-08-06T06:23:52.288Z,3.97
2018-08-06T06:26:27.296Z,3.80
2018-08-06T06:29:02.994Z,4.10
2018-08-06T06:31:38.123Z,4.03
2018-08-06T06:34:13.334Z,3.47
2018-08-06T06:36:48.208Z,3.67
2018-08-06T06:39:23.323Z,3.87
2018-08-06T06:41:58.456Z,3.80
2018-08-06T06:44:33.583Z,3.83
2018-08-06T06:47:09.120Z,3.13
2018-08-06T06:49:44.543Z,3.33
2018-08-06T06:52:19.508Z,3.17
2018-08-06T06:54:54.863Z,3.50
2018-08-06T06:57:30.129Z,3.00
2018-08-06T07:00:06.659Z,3.30
2018-08-06T07:02:42.325Z,2.97
2018-08-06T07:05:17.868Z,2.93
2018-08-06T07:07:52.856Z,2.73
2018-08-06T07:10:27.923Z,3.07
2018-08-06T07:13:03.677Z,3.10
2018-08-06T07:15:38.584Z,3.07
2018-08-06T07:18:13.964Z,3.53
2018-08-06T07:20:49.772Z,3.10
2018-08-06T07:23:24.860Z,3.20
2018-08-06T07:25:59.819Z,3.33
2018-08-06T07:28:35.813Z,3.43
2018-08-06T07:31:10.619Z,2.90
2018-08-06T07:33:45.974Z,3.20
2018-08-06T07:36:21.631Z,3.43
2018-08-06T07:38:56.758Z,2.73
2018-08-06T07:41:32.109Z,2.97
2018-08-06T07:44:07.267Z,2.93
2018-08-06T07:46:43.067Z,3.27
2018-08-06T07:49:18.619Z,3.33
2018-08-06T07:51:56.736Z,3.00
2018-08-06T07:54:33.870Z,3.30
2018-08-06T07:57:09.443Z,3.20
2018-08-06T07:59:44.128Z,3.57
2018-08-06T08:02:19.728Z,3.20
2018-08-06T08:04:54.827Z,3.13
2018-08-06T08:07:30.268Z,3.23
2018-08-06T08:10:08.583Z,2.90
2018-08-06T08:12:44.216Z,3.70
2018-08-06T08:15:23.101Z,3.27
2018-08-06T08:17:58.843Z,3.20
2018-08-06T08:20:34.104Z,3.70
2018-08-06T08:23:09.859Z,3.30
2018-08-06T08:25:44.912Z,3.33
2018-08-06T08:28:20.434Z,3.20
2018-08-06T08:30:55.676Z,3.23
2018-08-06T08:33:30.707Z,3.20
2018-08-06T08:36:06.647Z,3.00
2018-08-06T08:38:41.486Z,3.40
2018-08-06T08:41:16.750Z,3.50
2018-08-06T08:43:52.055Z,3.67
2018-08-06T08:46:27.121Z,3.60
2018-08-06T08:49:03.370Z,3.50
2018-08-06T08:51:38.733Z,3.53
2018-08-06T08:54:14.046Z,3.27
2018-08-06T08:56:49.107Z,3.20
2018-08-06T08:59:24.327Z,3.27
2018-08-06T09:01:59.335Z,3.20
2018-08-06T09:04:34.648Z,3.50
2018-08-06T09:07:10.160Z,3.07
2018-08-06T09:09:45.018Z,3.10
2018-08-06T09:12:19.674Z,3.00
2018-08-06T09:14:54.760Z,3.60
2018-08-06T09:17:30.103Z,3.20
2018-08-06T09:20:05.660Z,3.30
2018-08-06T09:22:41.740Z,3.50
2018-08-06T09:25:16.781Z,3.80
2018-08-06T09:27:52.436Z,3.77
2018-08-06T09:30:28.241Z,3.50
2018-08-06T09:33:03.790Z,3.30
2018-08-06T09:35:39.296Z,3.77
2018-08-06T09:38:14.568Z,2.90
2018-08-06T09:40:49.514Z,3.40
2018-08-06T09:43:24.341Z,3.70
2018-08-06T09:46:00.039Z,3.57
2018-08-06T09:48:36.335Z,3.37
2018-08-06T09:51:12.053Z,3.20
2018-08-06T09:53:47.344Z,3.10
2018-08-06T09:56:23.166Z,3.60
2018-08-06T09:58:58.295Z,3.43
2018-08-06T10:01:38.474Z,3.17
2018-08-06T10:04:13.379Z,3.20
2018-08-06T10:06:48.936Z,3.20
2018-08-06T10:09:24.311Z,3.30
2018-08-06T10:11:59.655Z,3.70
2018-08-06T10:14:34.882Z,3.60
2018-08-06T10:17:09.930Z,3.23
2018-08-06T10:19:45.782Z,3.70
2018-08-06T10:22:20.697Z,3.50
2018-08-06T10:24:55.807Z,3.53
2018-08-06T10:27:30.873Z,3.53
2018-08-06T10:30:09.573Z,3.63
2018-08-06T10:32:45.235Z,3.73
2018-08-06T10:35:20.992Z,3.40
2018-08-06T10:37:56.007Z,3.00
2018-08-06T10:40:31.177Z,3.40
2018-08-06T10:43:06.525Z,3.63
2018-08-06T10:45:41.954Z,3.23
2018-08-06T10:48:17.003Z,4.03
2018-08-06T10:50:52.101Z,4.07
2018-08-06T10:53:27.966Z,3.40
2018-08-06T10:56:03.689Z,3.50
2018-08-06T10:58:38.665Z,3.57
2018-08-06T11:01:13.695Z,3.73
2018-08-06T11:03:49.047Z,3.90
2018-08-06T11:06:24.046Z,3.70
2018-08-06T11:08:59.506Z,3.67
2018-08-06T11:11:34.712Z,3.60
2018-08-06T11:14:10.231Z,3.53
2018-08-06T11:16:45.436Z,3.80
2018-08-06T11:19:21.016Z,3.60
2018-08-06T11:21:52.531Z,3.60
2018-08-06T11:24:28.064Z,3.73
2018-08-06T11:27:03.922Z,3.80
2018-08-06T11:29:39.491Z,3.80
2018-08-06T11:32:14.845Z,3.50
2018-08-06T11:34:49.286Z,3.60
2018-08-06T11:37:24.938Z,3.67
2018-08-06T11:40:00.059Z,3.33
2018-08-06T11:42:35.061Z,3.40
2018-08-06T11:45:12.267Z,3.50
2018-08-06T11:47:47.797Z,4.00
2018-08-06T11:50:23.016Z,3.50
2018-08-06T11:52:58.161Z,3.67
2018-08-06T11:55:33.294Z,3.33
2018-08-06T11:58:08.735Z,3.50
2018-08-06T12:00:50.259Z,3.63
2018-08-06T12:03:25.534Z,3.60
2018-08-06T12:06:01.231Z,3.30
2018-08-06T12:08:36.701Z,3.10
2018-08-06T12:11:12.209Z,3.20
2018-08-06T12:13:47.061Z,3.43
2018-08-06T12:16:16.097Z,3.53
2018-08-06T12:18:45.979Z,3.20
2018-08-06T12:21:15.753Z,3.40
2018-08-06T12:23:45.160Z,3.17
2018-08-06T12:26:14.943Z,2.93
2018-08-06T12:28:44.577Z,3.63
2018-08-06T12:31:14.079Z,3.10
2018-08-06T12:33:43.679Z,3.30
2018-08-06T12:36:15.379Z,3.00
2018-08-06T12:38:54.726Z,3.30
2018-08-06T12:41:24.368Z,3.33
2018-08-06T12:43:53.666Z,3.13
2018-08-06T12:46:22.911Z,2.97
2018-08-06T12:48:53.227Z,3.07
2018-08-06T12:51:23.456Z,3.00
2018-08-06T12:53:59.702Z,2.93
2018-08-06T12:56:29.552Z,3.03
2018-08-06T12:59:02.616Z,2.90
2018-08-06T13:01:32.565Z,3.20
2018-08-06T13:04:02.512Z,3.17
2018-08-06T13:06:31.954Z,3.00
2018-08-06T13:09:01.471Z,3.10
2018-08-06T13:11:31.461Z,3.60
2018-08-06T13:14:01.043Z,3.33
2018-08-06T13:16:30.246Z,3.10
2018-08-06T13:19:05.819Z,3.00
2018-08-06T13:21:41.168Z,3.30
2018-08-06T13:24:16.186Z,2.67
2018-08-06T13:26:51.178Z,3.00
2018-08-06T13:29:26.638Z,3.10
2018-08-06T13:32:01.646Z,3.07
2018-08-06T13:34:37.043Z,3.00
2018-08-06T13:37:12.444Z,2.90
2018-08-06T13:39:47.751Z,3.00
2018-08-06T13:42:23.454Z,3.27
2018-08-06T13:44:58.923Z,3.20
2018-08-06T13:47:33.998Z,3.30
2018-08-06T13:50:10.956Z,3.27
2018-08-06T13:52:46.667Z,3.08
2018-08-06T13:55:22.186Z,2.90
2018-08-06T13:57:58.800Z,3.00
2018-08-06T14:00:34.753Z,2.50
2018-08-06T14:03:10.388Z,2.85
2018-08-06T14:05:46.250Z,2.97
2018-08-06T14:08:21.820Z,3.00
2018-08-06T14:10:57.356Z,2.72
2018-08-06T14:13:33.113Z,3.27
2018-08-06T14:16:09.121Z,3.30
2018-08-06T14:18:44.626Z,3.00
2018-08-06T14:21:20.407Z,3.10
2018-08-06T14:23:56.347Z,3.35
2018-08-06T14:26:32.602Z,3.25
2018-08-06T14:29:08.286Z,2.85
2018-08-06T14:31:44.580Z,3.50
2018-08-06T14:34:19.854Z,2.97
2018-08-06T14:36:55.621Z,3.00
2018-08-06T14:39:31.400Z,3.25
2018-08-06T14:42:07.759Z,3.43
2018-08-06T14:44:44.062Z,3.37
2018-08-06T14:47:18.901Z,3.07
2018-08-06T14:49:54.234Z,3.37
2018-08-06T14:52:30.404Z,3.50
2018-08-06T14:55:06.208Z,3.63
2018-08-06T14:57:42.288Z,3.50
2018-08-06T15:00:21.556Z,3.65
2018-08-06T15:02:57.650Z,3.70
2018-08-06T15:05:33.650Z,3.63
2018-08-06T15:08:09.507Z,3.02
2018-08-06T15:10:45.265Z,3.30
2018-08-06T15:13:20.750Z,3.30
2018-08-06T15:15:55.912Z,3.80
2018-08-06T15:18:31.251Z,3.50
2018-08-06T15:21:07.383Z,3.45
2018-08-06T15:23:42.822Z,3.40
2018-08-06T15:26:19.208Z,3.00
2018-08-06T15:28:55.070Z,3.33
2018-08-06T15:31:30.703Z,3.75
2018-08-06T15:34:07.234Z,3.80
2018-08-06T15:36:43.198Z,3.60
2018-08-06T15:39:19.323Z,3.25
2018-08-06T15:41:55.325Z,3.90
2018-08-06T15:44:30.826Z,3.30
2018-08-06T15:47:06.395Z,3.83
2018-08-06T15:49:42.448Z,3.80
2018-08-06T15:52:18.445Z,3.72
2018-08-06T15:54:54.113Z,4.33
2018-08-06T15:57:29.933Z,4.40
2018-08-06T16:00:06.847Z,3.70
2018-08-06T16:02:42.546Z,4.08
2018-08-06T16:05:19.464Z,4.00
2018-08-06T16:07:55.025Z,3.77
2018-08-06T16:10:29.435Z,3.70
2018-08-06T16:13:04.484Z,3.53
2018-08-06T16:15:40.245Z,3.90
2018-08-06T16:18:16.024Z,4.00
2018-08-06T16:20:51.703Z,3.92
2018-08-06T16:23:27.431Z,3.72
2018-08-06T16:26:03.170Z,4.00
2018-08-06T16:28:38.827Z,3.60
2018-08-06T16:31:14.453Z,3.47
2018-08-06T16:33:51.170Z,3.50
2018-08-06T16:36:27.269Z,3.52
2018-08-06T16:39:04.650Z,3.92
2018-08-06T16:41:40.414Z,3.40
2018-08-06T16:44:16.517Z,3.35
2018-08-06T16:46:52.544Z,3.80
2018-08-06T16:49:28.694Z,3.40
2018-08-06T16:52:04.435Z,3.70
2018-08-06T16:54:40.717Z,3.72
2018-08-06T16:57:16.476Z,3.40
2018-08-06T16:59:52.046Z,3.65
2018-08-06T17:02:27.360Z,3.80
2018-08-06T17:05:03.216Z,3.52
2018-08-06T17:07:39.107Z,3.80
2018-08-06T17:10:17.262Z,3.40
2018-08-06T17:12:52.984Z,3.40
2018-08-06T17:15:28.565Z,3.42
2018-08-06T17:18:03.967Z,3.47
2018-08-06T17:20:39.455Z,3.80
2018-08-06T17:23:15.123Z,3.50
2018-08-06T17:25:51.243Z,3.70
2018-08-06T17:28:27.390Z,3.98
2018-08-06T17:31:04.418Z,4.05
2018-08-06T17:33:40.343Z,3.15
2018-08-06T17:36:15.998Z,3.65
2018-08-06T17:38:52.688Z,3.90
2018-08-06T17:41:28.839Z,3.80
2018-08-06T17:44:03.681Z,3.77
2018-08-06T17:46:45.851Z,3.75
2018-08-06T17:49:25.533Z,3.42
2018-08-06T17:52:01.612Z,3.85
2018-08-06T17:54:37.791Z,4.03
2018-08-06T17:57:16.081Z,4.05
2018-08-06T17:59:51.504Z,4.03
2018-08-06T18:02:27.141Z,4.12
2018-08-06T18:05:02.985Z,3.90
2018-08-06T18:07:39.200Z,3.60
2018-08-06T18:10:15.850Z,3.40
2018-08-06T18:12:50.975Z,4.10
2018-08-06T18:15:25.995Z,3.73
2018-08-06T18:18:01.510Z,3.67
2018-08-06T18:20:37.110Z,3.85
2018-08-06T18:23:12.402Z,4.00
2018-08-06T18:25:47.683Z,3.97
2018-08-06T18:28:24.389Z,4.20
2018-08-06T18:31:07.166Z,3.95
2018-08-06T18:33:42.616Z,4.12
2018-08-06T18:36:17.953Z,4.30
2018-08-06T18:38:53.689Z,4.65
2018-08-06T18:41:28.733Z,4.57
2018-08-06T18:44:06.345Z,5.10
2018-08-06T18:46:40.873Z,4.80
2018-08-06T18:49:16.712Z,4.20
2018-08-06T18:51:51.879Z,4.13
2018-08-06T18:54:27.211Z,4.13
2018-08-06T18:57:02.724Z,4.27
2018-08-06T18:59:37.706Z,4.10
2018-08-06T19:02:13.972Z,5.17
2018-08-06T19:04:54.876Z,4.80
2018-08-06T19:07:30.357Z,4.60
2018-08-06T19:10:07.947Z,4.43
2018-08-06T19:12:48.182Z,4.13
2018-08-06T19:15:23.880Z,4.37
2018-08-06T19:18:04.325Z,4.47
2018-08-06T19:20:39.186Z,4.57
2018-08-06T19:23:14.353Z,4.87
2018-08-06T19:25:49.476Z,4.20
2018-08-06T19:28:24.806Z,5.30
2018-08-06T19:31:33.682Z,5.07
2018-08-06T19:47:09.454Z,6.20
2018-08-06T19:49:49.666Z,5.00
2018-08-06T19:52:24.673Z,4.83
2018-08-06T19:56:02.755Z,4.63
2018-08-06T19:58:38.313Z,5.37
2018-08-06T20:01:08.352Z,5.57
2018-08-06T20:03:43.537Z,4.70
2018-08-06T20:06:18.953Z,5.27
2018-08-06T20:08:54.008Z,5.30
2018-08-06T20:11:29.139Z,5.43
2018-08-06T20:14:04.473Z,6.90
2018-08-06T20:16:39.660Z,5.53
2018-08-06T20:19:14.796Z,5.70
2018-08-06T20:21:49.880Z,5.83
2018-08-06T20:24:24.915Z,5.50
2018-08-06T20:26:59.932Z,5.07
2018-08-06T20:29:34.946Z,4.73
2018-08-06T20:32:10.283Z,4.77
2018-08-06T20:34:46.289Z,5.70
2018-08-06T20:37:21.426Z,5.10
2018-08-06T20:39:56.446Z,5.70
2018-08-06T20:42:31.400Z,5.60
2018-08-06T20:45:10.946Z,6.13
2018-08-06T20:47:46.503Z,5.40
2018-08-06T20:50:23.632Z,6.10
2018-08-06T20:52:59.725Z,5.40
2018-08-06T20:55:35.289Z,5.63
2018-08-06T20:58:10.465Z,5.63
2018-08-06T21:00:46.233Z,5.10
2018-08-06T21:03:21.642Z,4.90
2018-08-06T21:05:56.862Z,5.53
2018-08-06T21:08:31.867Z,5.00
2018-08-06T21:11:07.429Z,5.33
2018-08-06T21:13:42.767Z,5.03
2018-08-06T21:16:17.850Z,5.07
2018-08-06T21:18:53.434Z,5.30
2018-08-06T21:21:29.461Z,5.20
2018-08-06T21:24:04.450Z,4.87
2018-08-06T21:26:39.326Z,5.53
2018-08-06T21:29:14.524Z,5.50
2018-08-06T21:31:49.331Z,4.97
2018-08-06T21:34:24.655Z,5.00
2018-08-06T21:36:59.735Z,5.30
2018-08-06T21:39:34.815Z,4.87
2018-08-06T21:42:10.004Z,5.53
2018-08-06T21:44:45.671Z,5.00
2018-08-06T21:47:21.602Z,5.00
2018-08-06T21:49:56.681Z,5.40
2018-08-06T21:52:32.039Z,5.23
2018-08-06T21:55:08.429Z,5.57
2018-08-06T21:57:43.373Z,5.67
2018-08-06T22:00:36.058Z,4.80
2018-08-06T22:03:12.772Z,5.90
2018-08-06T22:05:47.848Z,4.97
2018-08-06T22:08:23.139Z,5.40
2018-08-06T22:10:57.976Z,5.80
2018-08-06T22:13:33.132Z,5.30
2018-08-06T22:16:08.106Z,5.00
2018-08-06T22:18:43.261Z,5.60
2018-08-06T22:21:18.351Z,5.37
2018-08-06T22:23:53.458Z,5.43
2018-08-06T22:26:28.701Z,5.37
2018-08-06T22:29:04.290Z,5.47
2018-08-06T22:31:39.792Z,5.57
2018-08-06T22:34:15.843Z,5.83
2018-08-06T22:36:50.781Z,5.10
2018-08-06T22:39:25.820Z,5.07
2018-08-06T22:42:01.041Z,5.10
2018-08-06T22:44:36.087Z,5.37
2018-08-06T22:47:11.036Z,5.53
2018-08-06T22:49:47.100Z,5.20
2018-08-06T22:52:22.486Z,5.20
2018-08-06T22:54:58.377Z,5.33
2018-08-06T22:57:33.493Z,5.13
2018-08-06T23:00:12.152Z,5.90
2018-08-06T23:02:49.283Z,5.63
2018-08-06T23:05:24.404Z,5.53
2018-08-06T23:07:59.501Z,5.20
2018-08-06T23:10:34.618Z,5.47
2018-08-06T23:13:09.800Z,5.20
2018-08-06T23:15:45.280Z,6.03
2018-08-06T23:18:20.510Z,5.53
2018-08-06T23:20:56.137Z,5.00
2018-08-06T23:23:31.076Z,5.50
2018-08-06T23:26:06.503Z,5.03
2018-08-06T23:28:42.245Z,5.13
2018-08-06T23:31:17.306Z,5.60
2018-08-06T23:33:52.416Z,5.07
2018-08-06T23:36:28.350Z,5.20
2018-08-06T23:39:03.256Z,5.53
2018-08-06T23:41:38.447Z,4.90
2018-08-06T23:44:13.381Z,5.10
2018-08-06T23:46:48.180Z,5.37
2018-08-06T23:49:23.031Z,4.57
2018-08-06T23:51:57.995Z,5.03
2018-08-06T23:54:32.881Z,4.80
2018-08-06T23:57:07.927Z,4.80
2018-08-06T23:59:43.081Z,5.23
